Time;durP1;ratioP1;P1;durP2;ratioP2;P2;SDS_P1;SDS_P2;PMS_P1;PMS_P2;Temp;Humidity;BMP_temperature;BMP_pressure;BME280_temperature;BME280_humidity;BME280_pressure;Samples;Min_cycle;Max_cycle;Signal;HPM_P1;HPM_P2
2022/07/22 00:02:04;;;;;;;1.90;0.20;;;;;;;17.48;100.00;101451.03;5050168;28;20073;-50
2022/07/22 00:04:30;;;;;;;4.80;0.88;;;;;;;17.48;100.00;101450.19;5051100;28;20035;-50
2022/07/22 00:06:55;;;;;;;3.58;0.30;;;;;;;17.47;100.00;101443.19;5057447;28;20028;-49
2022/07/22 00:09:21;;;;;;;1.55;0.30;;;;;;;17.46;100.00;101442.38;5057969;28;20035;-50
2022/07/22 00:11:46;;;;;;;5.40;1.05;;;;;;;17.45;100.00;101448.78;5051099;28;20028;-53
2022/07/22 00:14:12;;;;;;;4.15;0.77;;;;;;;17.41;100.00;101453.72;5054986;28;20040;-49
2022/07/22 00:16:38;;;;;;;7.25;1.23;;;;;;;17.42;100.00;101446.50;5049286;28;20032;-48
2022/07/22 00:19:03;;;;;;;4.47;0.17;;;;;;;17.39;100.00;101441.56;5054900;28;20504;-48
2022/07/22 00:21:29;;;;;;;2.47;0.43;;;;;;;17.36;100.00;101440.13;5052775;28;20452;-46
2022/07/22 00:23:54;;;;;;;3.03;0.40;;;;;;;17.32;100.00;101427.38;5049723;28;20039;-49
2022/07/22 00:26:20;;;;;;;2.90;0.57;;;;;;;17.29;100.00;101425.94;5050521;28;20040;-54
2022/07/22 00:28:45;;;;;;;0.77;0.50;;;;;;;17.29;100.00;101423.25;5046102;28;20481;-52
2022/07/22 00:31:11;;;;;;;2.15;0.35;;;;;;;17.27;100.00;101424.50;5053165;28;20390;-52
2022/07/22 00:33:36;;;;;;;7.22;1.55;;;;;;;17.25;100.00;101422.06;5050176;28;20032;-54
2022/07/22 00:36:01;;;;;;;3.35;0.93;;;;;;;17.22;100.00;101420.63;5062253;28;20073;-49
2022/07/22 00:38:27;;;;;;;1.13;0.30;;;;;;;17.21;100.00;101424.31;5051370;28;20086;-50
2022/07/22 00:40:52;;;;;;;2.92;0.63;;;;;;;17.20;100.00;101422.69;5053438;28;20037;-49
2022/07/22 00:43:17;;;;;;;1.27;0.20;;;;;;;17.18;100.00;101424.75;5053780;28;20025;-49
2022/07/22 00:45:43;;;;;;;3.70;0.30;;;;;;;17.13;100.00;101424.56;5045323;28;20031;-49
2022/07/22 00:48:08;;;;;;;6.15;0.68;;;;;;;17.11;100.00;101434.66;5057501;28;20153;-49
2022/07/22 00:50:34;;;;;;;6.03;0.22;;;;;;;17.09;100.00;101425.19;5052814;28;20024;-51
2022/07/22 00:53:00;;;;;;;2.05;0.50;;;;;;;17.06;100.00;101425.59;5052131;28;20395;-49
2022/07/22 00:55:25;;;;;;;2.78;0.30;;;;;;;17.07;100.00;101425.41;5051759;28;20079;-48
2022/07/22 00:57:51;;;;;;;6.32;0.80;;;;;;;17.09;100.00;101422.50;5054050;28;20025;-49
2022/07/22 01:00:19;;;;;;;1.58;0.40;;;;;;;17.09;100.00;101419.81;5056361;28;20173;-52
2022/07/22 01:02:45;;;;;;;4.97;0.50;;;;;;;17.10;100.00;101418.81;5056245;28;20035;-49
2022/07/22 01:05:11;;;;;;;3.55;0.30;;;;;;;17.08;100.00;101415.50;5051915;28;20685;-49
2022/07/22 01:07:37;;;;;;;2.40;0.40;;;;;;;17.08;100.00;101410.97;5058248;28;20494;-48
2022/07/22 01:10:03;;;;;;;4.55;0.43;;;;;;;17.09;100.00;101414.47;5052887;28;20047;-51
2022/07/22 01:12:29;;;;;;;2.00;0.20;;;;;;;17.06;100.00;101414.88;5057715;28;20033;-51
2022/07/22 01:14:54;;;;;;;4.25;0.52;;;;;;;17.05;100.00;101408.72;5052925;28;20496;-51
2022/07/22 01:17:20;;;;;;;3.17;0.13;;;;;;;17.04;100.00;101415.13;5055609;28;20086;-48
2022/07/22 01:19:45;;;;;;;3.58;0.40;;;;;;;17.03;100.00;101408.09;5055213;28;20429;-44
2022/07/22 01:22:11;;;;;;;2.13;0.22;;;;;;;16.99;100.00;101404.22;5048796;28;20087;-50
2022/07/22 01:24:36;;;;;;;1.95;0.10;;;;;;;16.97;100.00;101406.28;5032183;28;20028;-49
2022/07/22 01:27:02;;;;;;;0.65;0.52;;;;;;;16.91;100.00;101407.09;5052679;28;20021;-45
2022/07/22 01:29:27;;;;;;;2.55;0.20;;;;;;;16.90;100.00;101402.78;5050834;28;20037;-47
2022/07/22 01:31:53;;;;;;;8.35;0.47;;;;;;;16.86;100.00;101398.91;5059367;28;20025;-51
2022/07/22 01:34:18;;;;;;;3.35;0.38;;;;;;;16.84;100.00;101398.28;5063537;28;20058;-52
2022/07/22 01:36:43;;;;;;;1.85;0.10;;;;;;;16.83;100.00;101399.28;5053416;28;20082;-46
2022/07/22 01:39:09;;;;;;;6.35;0.80;;;;;;;16.83;100.00;101401.97;5050828;28;20033;-47
2022/07/22 01:41:34;;;;;;;0.73;0.25;;;;;;;16.81;100.00;101401.38;5052819;28;20021;-46
2022/07/22 01:44:00;;;;;;;3.13;0.47;;;;;;;16.79;100.00;101397.03;5063547;28;20410;-45
2022/07/22 01:46:25;;;;;;;7.82;1.17;;;;;;;16.79;100.00;101394.34;5058521;28;20029;-50
2022/07/22 01:48:52;;;;;;;2.25;0.57;;;;;;;16.76;100.00;101394.75;5052692;28;20025;-51
2022/07/22 01:51:18;;;;;;;2.15;0.43;;;;;;;16.74;100.00;101396.81;5064546;28;20497;-51
2022/07/22 01:53:43;;;;;;;1.85;0.20;;;;;;;16.72;100.00;101395.38;5053528;28;20104;-46
2022/07/22 01:56:08;;;;;;;4.32;0.55;;;;;;;16.68;100.00;101392.31;5047984;28;20059;-48
2022/07/22 01:58:34;;;;;;;2.20;0.13;;;;;;;16.64;100.00;101385.72;5056960;28;20482;-50
2022/07/22 02:00:59;;;;;;;1.33;0.20;;;;;;;16.61;100.00;101388.00;5051680;28;20432;-49
2022/07/22 02:03:25;;;;;;;1.45;0.63;;;;;;;16.55;100.00;101389.66;5054218;28;20064;-50
2022/07/22 02:05:50;;;;;;;2.25;0.30;;;;;;;16.52;100.00;101398.94;5072212;28;20044;-48
2022/07/22 02:08:15;;;;;;;1.80;0.13;;;;;;;16.52;100.00;101390.91;5044082;28;20569;-53
2022/07/22 02:10:41;;;;;;;2.35;0.52;;;;;;;16.49;100.00;101387.78;5069587;28;20036;-45
2022/07/22 02:13:06;;;;;;;2.88;0.47;;;;;;;16.47;100.00;101387.16;5056349;28;20028;-48
2022/07/22 02:15:32;;;;;;;0.22;0.10;;;;;;;16.45;100.00;101391.94;5059243;28;20568;-52
2022/07/22 02:17:58;;;;;;;0.30;0.17;;;;;;;16.42;100.00;101398.53;5057421;28;20048;-50
2022/07/22 02:20:23;;;;;;;1.17;0.20;;;;;;;16.40;100.00;101399.75;5033895;28;20068;-47
2022/07/22 02:22:49;;;;;;;1.50;0.30;;;;;;;16.40;100.00;101405.13;5063040;28;20036;-50
2022/07/22 02:25:15;;;;;;;3.45;0.60;;;;;;;16.39;100.00;101400.78;5047075;28;20498;-44
2022/07/22 02:27:41;;;;;;;0.80;0.73;;;;;;;16.41;100.00;101396.84;5064121;28;20078;-48
2022/07/22 02:30:08;;;;;;;1.08;0.15;;;;;;;16.43;100.00;101404.69;5059668;28;20037;-48
2022/07/22 02:32:34;;;;;;;2.95;0.40;;;;;;;16.45;100.00;101408.00;5063040;28;20086;-49
2022/07/22 02:35:00;;;;;;;1.42;0.30;;;;;;;16.43;100.00;101408.19;5058362;28;20033;-47
2022/07/22 02:37:25;;;;;;;3.92;0.85;;;;;;;16.40;100.00;101405.13;5039592;28;20044;-46
2022/07/22 02:39:50;;;;;;;3.33;0.45;;;;;;;16.40;100.00;101407.78;5060496;28;20036;-48
2022/07/22 02:42:16;;;;;;;1.60;0.80;;;;;;;16.40;100.00;101402.44;5067033;28;20036;-46
2022/07/22 02:44:41;;;;;;;0.35;0.30;;;;;;;16.40;100.00;101408.59;5067610;28;20035;-50
2022/07/22 02:47:07;;;;;;;1.95;0.32;;;;;;;16.39;100.00;101408.81;5057224;28;20522;-46
2022/07/22 02:49:32;;;;;;;2.63;0.20;;;;;;;16.38;100.00;101405.31;5051724;28;20032;-47
2022/07/22 02:51:58;;;;;;;3.50;1.23;;;;;;;16.38;100.00;101412.53;5060969;28;20028;-50
2022/07/22 02:54:23;;;;;;;2.65;0.25;;;;;;;16.34;100.00;101412.94;5045449;28;20039;-50
2022/07/22 02:56:48;;;;;;;0.57;0.20;;;;;;;16.35;100.00;101416.44;5056963;28;20370;-45
2022/07/22 02:59:14;;;;;;;0.68;0.38;;;;;;;16.32;100.00;101412.31;5054524;28;20106;-48
2022/07/22 03:01:39;;;;;;;4.15;0.20;;;;;;;16.31;100.00;101407.97;5050078;28;20483;-53
2022/07/22 03:04:04;;;;;;;6.53;1.27;;;;;;;16.29;100.00;101404.72;5058745;28;20389;-54
2022/07/22 03:06:30;;;;;;;1.83;0.20;;;;;;;16.30;100.00;101408.19;5054592;28;20028;-55
2022/07/22 03:08:55;;;;;;;4.95;0.25;;;;;;;16.27;100.00;101406.75;5051735;28;20414;-51
2022/07/22 03:11:20;;;;;;;3.67;0.52;;;;;;;16.25;100.00;101406.13;5056338;28;20028;-51
2022/07/22 03:13:46;;;;;;;6.30;0.65;;;;;;;16.24;100.00;101407.19;5050936;28;20053;-52
2022/07/22 03:16:11;;;;;;;2.13;0.25;;;;;;;16.23;100.00;101400.16;5060298;28;20378;-49
2022/07/22 03:18:37;;;;;;;2.88;0.60;;;;;;;16.23;100.00;101394.81;5062649;28;20433;-47
2022/07/22 03:21:02;;;;;;;2.47;0.93;;;;;;;16.21;100.00;101399.56;5064470;28;20028;-52
2022/07/22 03:23:28;;;;;;;1.50;0.30;;;;;;;16.17;100.00;101392.97;5054171;28;20024;-48
2022/07/22 03:25:55;;;;;;;2.30;0.43;;;;;;;16.17;100.00;101392.97;5049626;28;20024;-49
2022/07/22 03:28:21;;;;;;;2.13;0.43;;;;;;;16.16;100.00;101388.66;5059361;28;20641;-51
2022/07/22 03:30:46;;;;;;;3.30;0.80;;;;;;;16.16;100.00;101385.97;5054947;28;20107;-51
2022/07/22 03:33:11;;;;;;;3.35;0.10;;;;;;;16.14;100.00;101390.72;5056307;28;20052;-51
2022/07/22 03:35:37;;;;;;;1.17;0.32;;;;;;;16.14;100.00;101386.19;5059449;28;20029;-49
2022/07/22 03:38:03;;;;;;;2.10;0.28;;;;;;;16.13;100.00;101384.53;5062273;28;20024;-46
2022/07/22 03:40:28;;;;;;;1.13;0.30;;;;;;;16.14;100.00;101380.00;5047045;28;20112;-50
2022/07/22 03:42:54;;;;;;;2.22;0.50;;;;;;;16.14;100.00;101386.19;5051616;28;20096;-51
2022/07/22 03:45:19;;;;;;;1.20;0.20;;;;;;;16.13;100.00;101378.34;5055989;28;20041;-52
2022/07/22 03:47:44;;;;;;;5.68;1.00;;;;;;;16.16;100.00;101377.97;5059506;28;20115;-47
2022/07/22 03:50:10;;;;;;;7.30;1.05;;;;;;;16.14;100.00;101378.16;5055144;28;20079;-46
2022/07/22 03:52:35;;;;;;;2.95;0.40;;;;;;;16.14;100.00;101374.66;5056685;28;20037;-48
2022/07/22 03:55:01;;;;;;;7.95;1.15;;;;;;;16.11;100.00;101369.72;5053598;28;20127;-48
2022/07/22 03:57:28;;;;;;;3.75;0.45;;;;;;;16.06;100.00;101367.66;5057306;28;20065;-51
2022/07/22 03:59:54;;;;;;;1.35;0.10;;;;;;;16.05;100.00;101370.53;5038697;28;20047;-50
2022/07/22 04:02:19;;;;;;;6.47;1.42;;;;;;;16.04;100.00;101363.53;5059438;28;20507;-54
2022/07/22 04:04:45;;;;;;;5.50;0.30;;;;;;;16.04;100.00;101374.25;5059985;28;20264;-47
2022/07/22 04:07:10;;;;;;;7.20;1.98;;;;;;;16.04;100.00;101371.56;5063909;28;20477;-52
2022/07/22 04:09:35;;;;;;;4.38;0.20;;;;;;;16.03;100.00;101369.91;5053447;28;20032;-55
2022/07/22 04:12:01;;;;;;;4.50;0.30;;;;;;;16.02;100.00;101365.59;5051794;28;20025;-51
2022/07/22 04:14:26;;;;;;;3.55;0.80;;;;;;;15.98;100.00;101364.34;5052178;28;20033;-53
2022/07/22 04:16:51;;;;;;;2.72;0.30;;;;;;;15.97;100.00;101352.00;5045352;28;20411;-45
2022/07/22 04:19:17;;;;;;;4.13;1.17;;;;;;;15.97;100.00;101362.72;5053211;28;20131;-43
2022/07/22 04:21:42;;;;;;;1.38;0.20;;;;;;;16.00;100.00;101356.94;5051952;28;20031;-52
2022/07/22 04:24:08;;;;;;;1.00;0.52;;;;;;;15.99;100.00;101349.97;5056753;28;20032;-52
2022/07/22 04:26:34;;;;;;;4.10;0.65;;;;;;;16.00;100.00;101343.56;5057827;28;20037;-53
2022/07/22 04:28:59;;;;;;;0.40;0.17;;;;;;;15.98;100.00;101346.47;5051409;28;20035;-48
2022/07/22 04:31:24;;;;;;;3.35;0.38;;;;;;;16.00;100.00;101348.91;5050456;28;20044;-53
2022/07/22 04:33:50;;;;;;;5.43;1.10;;;;;;;16.00;100.00;101344.38;5042815;28;20136;-55
2022/07/22 04:36:15;;;;;;;3.60;0.40;;;;;;;16.03;100.00;101343.16;5059632;28;20081;-55
2022/07/22 04:38:41;;;;;;;4.70;0.80;;;;;;;16.03;100.00;101340.47;5048294;28;20024;-54
2022/07/22 04:41:06;;;;;;;5.43;0.82;;;;;;;16.03;100.00;101343.16;5048429;28;20097;-52
2022/07/22 04:43:32;;;;;;;1.20;0.57;;;;;;;16.04;100.00;101344.81;5057106;28;20036;-50
2022/07/22 04:45:57;;;;;;;3.03;0.25;;;;;;;16.04;100.00;101342.97;5047145;28;20021;-53
2022/07/22 04:48:23;;;;;;;3.03;0.57;;;;;;;16.02;100.00;101339.66;5051144;28;20454;-52
2022/07/22 04:50:48;;;;;;;2.40;0.22;;;;;;;16.04;100.00;101336.78;5031170;28;20032;-51
2022/07/22 04:53:14;;;;;;;2.13;0.75;;;;;;;16.05;100.00;101336.56;5048915;28;20508;-54
2022/07/22 04:55:39;;;;;;;4.28;1.10;;;;;;;16.07;100.00;101347.06;5052570;28;20028;-52
2022/07/22 04:58:05;;;;;;;6.88;1.13;;;;;;;16.08;100.00;101335.34;5050723;28;20043;-51
2022/07/22 05:00:30;;;;;;;2.55;0.30;;;;;;;16.09;100.00;101340.50;5059785;28;20362;-46
2022/07/22 05:02:56;;;;;;;2.03;0.15;;;;;;;16.11;100.00;101337.63;5057580;28;20029;-55
2022/07/22 05:05:22;;;;;;;1.48;0.20;;;;;;;16.11;100.00;101337.63;5059631;28;20029;-53
2022/07/22 05:07:47;;;;;;;1.52;1.10;;;;;;;16.12;100.00;101345.41;5048500;28;20039;-55
2022/07/22 05:10:13;;;;;;;1.65;0.10;;;;;;;16.14;100.00;101348.72;5058897;28;20033;-54
2022/07/22 05:12:38;;;;;;;2.08;0.30;;;;;;;16.17;100.00;101352.03;5062787;28;20548;-50
2022/07/22 05:15:04;;;;;;;4.30;0.65;;;;;;;16.17;100.00;101341.31;5066010;28;20051;-51
2022/07/22 05:17:30;;;;;;;2.65;0.82;;;;;;;16.18;100.00;101346.44;5064801;28;20202;-51
2022/07/22 05:19:55;;;;;;;4.47;0.95;;;;;;;16.21;100.00;101351.41;5048481;28;20379;-53
2022/07/22 05:22:20;;;;;;;5.68;0.68;;;;;;;16.25;100.00;101349.94;5057223;28;20029;-53
2022/07/22 05:24:46;;;;;;;3.45;0.90;;;;;;;16.27;100.00;101357.78;5065573;28;20196;-51
2022/07/22 05:27:11;;;;;;;2.38;0.20;;;;;;;16.27;100.00;101363.94;5061921;28;20167;-54
2022/07/22 05:29:37;;;;;;;1.20;0.77;;;;;;;16.31;100.00;101357.13;5043723;28;20103;-48
2022/07/22 05:32:02;;;;;;;3.92;0.60;;;;;;;16.33;100.00;101360.44;5056242;28;20091;-55
2022/07/22 05:34:28;;;;;;;2.28;0.65;;;;;;;16.34;100.00;101347.88;5059401;28;20971;-53
2022/07/22 05:36:53;;;;;;;3.35;0.60;;;;;;;16.36;100.00;101351.97;5062420;28;20025;-52
2022/07/22 05:39:18;;;;;;;3.08;0.20;;;;;;;16.38;100.00;101350.97;5040666;28;20052;-52
2022/07/22 05:41:44;;;;;;;4.28;0.80;;;;;;;16.40;100.00;101354.25;5056642;28;20037;-49
2022/07/22 05:44:09;;;;;;;3.72;1.45;;;;;;;16.41;100.00;101348.69;5056534;28;20025;-50
2022/07/22 05:46:35;;;;;;;12.32;1.30;;;;;;;16.41;100.00;101347.88;5058573;28;20029;-47
2022/07/22 05:49:00;;;;;;;2.50;0.32;;;;;;;16.42;100.00;101344.16;5059109;28;20036;-50
2022/07/22 05:51:26;;;;;;;1.75;0.50;;;;;;;16.43;100.00;101340.47;5062604;28;20422;-55
2022/07/22 05:53:51;;;;;;;2.33;0.30;;;;;;;16.45;100.00;101338.41;5064389;28;20032;-52
2022/07/22 05:56:17;;;;;;;6.72;0.75;;;;;;;16.45;100.00;101335.72;5055125;28;20041;-45
2022/07/22 05:58:42;;;;;;;2.92;0.63;;;;;;;16.42;100.00;101338.78;5054135;28;20355;-47
2022/07/22 06:01:11;;;;;;;0.88;0.13;;;;;;;16.41;100.00;101342.50;5052519;28;20064;-52
2022/07/22 06:03:37;;;;;;;4.32;0.63;;;;;;;16.43;100.00;101343.13;5061826;28;20029;-55
2022/07/22 06:06:04;;;;;;;3.35;0.10;;;;;;;16.48;100.00;101343.34;5036424;28;20385;-55
2022/07/22 06:08:30;;;;;;;1.73;0.30;;;;;;;16.60;100.00;101338.13;5060530;28;20068;-53
2022/07/22 06:10:56;;;;;;;1.98;0.32;;;;;;;16.78;100.00;101341.84;5061368;28;20434;-52
2022/07/22 06:13:22;;;;;;;2.85;0.82;;;;;;;16.97;100.00;101332.09;5051689;28;20441;-50
2022/07/22 06:15:47;;;;;;;2.83;0.68;;;;;;;17.09;100.00;101339.44;5052049;28;20036;-46
2022/07/22 06:18:13;;;;;;;0.70;0.20;;;;;;;17.13;100.00;101338.81;5053975;28;20048;-49
2022/07/22 06:20:38;;;;;;;2.40;0.28;;;;;;;17.19;100.00;101332.63;5057946;28;20030;-52
2022/07/22 06:23:04;;;;;;;2.85;0.75;;;;;;;17.21;100.00;101333.19;5063049;28;20549;-51
2022/07/22 06:25:29;;;;;;;2.20;1.23;;;;;;;17.18;100.00;101333.63;5055249;28;20032;-50
2022/07/22 06:27:54;;;;;;;1.88;0.20;;;;;;;17.15;100.00;101334.06;5064677;28;20135;-51
2022/07/22 06:30:20;;;;;;;4.72;0.15;;;;;;;17.12;100.00;101339.03;5052790;28;20033;-44
2022/07/22 06:32:46;;;;;;;3.70;0.95;;;;;;;17.06;100.00;101332.66;5060806;28;20095;-46
2022/07/22 06:35:11;;;;;;;12.07;1.55;;;;;;;17.07;100.00;101334.31;5056882;28;20393;-48
2022/07/22 06:37:36;;;;;;;4.07;0.40;;;;;;;17.19;100.00;101334.44;5049461;28;20107;-50
2022/07/22 06:40:02;;;;;;;3.58;1.95;;;;;;;17.33;100.00;101335.22;5058008;28;20392;-52
2022/07/22 06:42:28;;;;;;;3.13;0.10;;;;;;;17.46;100.00;101334.31;5053650;28;20090;-51
2022/07/22 06:44:53;;;;;;;0.88;0.32;;;;;;;17.60;100.00;101338.53;5051013;28;20423;-50
2022/07/22 06:47:18;;;;;;;1.52;0.20;;;;;;;17.67;100.00;101325.91;5047554;28;20422;-48
2022/07/22 06:49:44;;;;;;;0.30;0.10;;;;;;;17.66;100.00;101332.31;5063894;28;20059;-44
2022/07/22 06:52:09;;;;;;;2.85;0.43;;;;;;;17.60;100.00;101325.94;5034944;28;20106;-51
2022/07/22 06:54:35;;;;;;;3.22;0.13;;;;;;;17.62;100.00;101323.88;5047316;28;20390;-50
2022/07/22 06:57:00;;;;;;;1.48;0.45;;;;;;;17.65;100.00;101317.25;5052013;28;20025;-51
2022/07/22 06:59:26;;;;;;;6.50;0.85;;;;;;;17.66;100.00;101318.91;5050165;28;20060;-49
2022/07/22 07:01:51;;;;;;;7.68;0.35;;;;;;;17.73;100.00;101316.16;5030308;28;20037;-48
2022/07/22 07:04:18;;;;;;;1.52;0.20;;;;;;;17.81;100.00;101318.59;5046127;28;20417;-51
2022/07/22 07:06:44;;;;;;;2.20;0.20;;;;;;;17.83;100.00;101312.00;5038922;28;20036;-49
2022/07/22 07:09:09;;;;;;;3.67;0.30;;;;;;;17.90;100.00;101319.19;5052323;28;20490;-46
2022/07/22 07:11:34;;;;;;;3.78;0.38;;;;;;;17.95;100.00;101313.97;5046084;28;20109;-46
2022/07/22 07:14:00;;;;;;;1.05;0.28;;;;;;;18.11;100.00;101320.66;5037857;28;20085;-52
2022/07/22 07:16:26;;;;;;;3.60;0.20;;;;;;;18.35;100.00;101316.28;5051286;28;20456;-50
2022/07/22 07:18:51;;;;;;;1.75;0.22;;;;;;;18.38;100.00;101315.81;5052397;28;20033;-54
2022/07/22 07:21:16;;;;;;;1.80;0.30;;;;;;;18.39;100.00;101312.13;5054420;28;20025;-51
2022/07/22 07:23:42;;;;;;;5.07;0.57;;;;;;;18.44;100.00;101310.41;5052389;28;20086;-44
2022/07/22 07:26:07;;;;;;;4.85;0.25;;;;;;;18.48;100.00;101302.69;5052713;28;20029;-50
2022/07/22 07:28:33;;;;;;;2.65;0.10;;;;;;;18.57;100.00;101303.25;5052672;28;20036;-49
2022/07/22 07:30:58;;;;;;;4.10;0.43;;;;;;;18.71;100.00;101302.84;5049679;28;20052;-47
2022/07/22 07:33:24;;;;;;;9.30;0.43;;;;;;;18.84;100.00;101299.22;5056653;28;20132;-50
2022/07/22 07:35:49;;;;;;;6.68;0.30;;;;;;;18.97;100.00;101303.59;5060533;28;20494;-44
2022/07/22 07:38:15;;;;;;;3.60;0.10;;;;;;;18.90;100.00;101301.00;5044724;28;20535;-46
2022/07/22 07:40:41;;;;;;;3.10;0.63;;;;;;;18.71;100.00;101302.03;5053448;28;20397;-46
2022/07/22 07:43:06;;;;;;;4.72;0.30;;;;;;;18.63;100.00;101300.47;5056673;28;20180;-51
2022/07/22 07:45:32;;;;;;;3.95;0.35;;;;;;;18.67;100.00;101299.00;5051218;28;20033;-47
2022/07/22 07:47:59;;;;;;;2.97;0.50;;;;;;;18.64;100.00;101293.22;5055891;28;20032;-55
2022/07/22 07:50:24;;;;;;;4.32;0.60;;;;;;;18.55;100.00;101295.41;5049919;28;20029;-50
2022/07/22 07:52:50;;;;;;;6.38;1.15;;;;;;;18.53;100.00;101290.28;5048408;28;20052;-48
2022/07/22 07:55:15;;;;;;;5.30;0.63;;;;;;;18.49;100.00;101293.63;5046470;28;20511;-51
2022/07/22 07:57:41;;;;;;;2.55;0.38;;;;;;;18.52;100.00;101298.53;5060902;28;20064;-46
2022/07/22 08:00:09;;;;;;;1.52;1.10;;;;;;;18.50;100.00;101290.69;5067928;28;20048;-50
2022/07/22 08:02:35;;;;;;;4.40;0.73;;;;;;;18.49;100.00;101291.75;5053373;28;20489;-48
2022/07/22 08:05:01;;;;;;;1.10;0.55;;;;;;;18.52;100.00;101285.13;5062085;28;20039;-51
2022/07/22 08:07:28;;;;;;;2.58;0.43;;;;;;;18.61;100.00;101283.78;5049700;28;20036;-47
2022/07/22 08:09:54;;;;;;;5.40;0.98;;;;;;;18.70;100.00;101290.47;5059483;28;20238;-43
2022/07/22 08:12:19;;;;;;;5.70;1.38;;;;;;;18.76;100.00;101278.03;5053938;28;20047;-51
2022/07/22 08:14:44;;;;;;;1.30;0.68;;;;;;;18.80;100.00;101281.09;5054048;28;20837;-51
2022/07/22 08:17:10;;;;;;;4.05;0.70;;;;;;;18.88;100.00;101275.41;5054187;28;20029;-54
2022/07/22 08:19:35;;;;;;;7.50;0.40;;;;;;;18.98;100.00;101288.31;5046033;28;20166;-50
2022/07/22 08:22:01;;;;;;;2.15;1.17;;;;;;;19.06;100.00;101277.25;5051038;28;20123;-47
2022/07/22 08:24:26;;;;;;;2.50;0.32;;;;;;;19.06;100.00;101279.94;5055851;28;20173;-49
2022/07/22 08:26:51;;;;;;;1.02;0.25;;;;;;;19.07;100.00;101289.63;5056920;28;20488;-53
2022/07/22 08:29:17;;;;;;;6.65;1.10;;;;;;;18.99;100.00;101274.63;5045943;28;20055;-56
2022/07/22 08:31:43;;;;;;;3.65;0.38;;;;;;;19.06;100.00;101279.94;5050136;28;20043;-52
2022/07/22 08:34:08;;;;;;;1.35;0.20;;;;;;;19.31;100.00;101269.84;5050624;28;20039;-57
2022/07/22 08:36:34;;;;;;;0.88;0.52;;;;;;;19.50;100.00;101259.00;5052267;28;20492;-57
2022/07/22 08:38:59;;;;;;;3.05;0.30;;;;;;;19.59;100.00;101263.00;5044372;28;20017;-48
2022/07/22 08:41:26;;;;;;;1.83;0.43;;;;;;;19.81;100.00;101258.72;5058897;28;20025;-43
2022/07/22 08:43:51;;;;;;;1.50;0.32;;;;;;;20.10;100.00;101250.75;5053017;28;20028;-49
2022/07/22 08:46:17;;;;;;;1.55;0.20;;;;;;;20.33;100.00;101249.91;5051863;28;20029;-48
2022/07/22 08:48:43;;;;;;;2.30;1.08;;;;;;;20.47;100.00;101245.91;5054474;28;20067;-53
2022/07/22 08:51:09;;;;;;;7.70;1.95;;;;;;;20.55;100.00;101244.75;5046937;28;20128;-48
2022/07/22 08:53:34;;;;;;;2.15;0.40;;;;;;;20.67;100.00;101255.47;5034978;28;20048;-47
2022/07/22 08:56:00;;;;;;;3.40;0.28;;;;;;;20.86;100.00;101253.44;5039844;28;20024;-50
2022/07/22 08:58:27;;;;;;;5.85;0.20;;;;;;;20.76;100.00;101247.84;5058505;28;20031;-49
2022/07/22 09:01:13;;;;;;;2.97;0.77;;;;;;;20.53;100.00;101254.91;5047678;28;20493;-50
2022/07/22 09:03:49;;;;;;;1.85;0.20;;;;;;;20.63;100.00;101249.75;5053539;28;20033;-53
2022/07/22 09:06:16;;;;;;;1.33;0.35;;;;;;;20.65;100.00;101249.50;5048800;28;20033;-45
2022/07/22 09:08:58;;;;;;;2.33;0.22;;;;;;;20.79;100.00;101250.06;5043373;28;20028;-49
2022/07/22 09:11:28;;;;;;;1.77;0.30;;;;;;;21.05;100.00;101237.88;5047826;28;20040;-47
2022/07/22 09:13:53;;;;;;;1.65;0.65;;;;;;;21.12;100.00;101227.75;5029463;28;20448;-49
2022/07/22 09:16:41;;;;;;;0.55;0.10;;;;;;;21.29;100.00;101228.56;5053222;28;20086;-53
2022/07/22 09:19:06;;;;;;;3.10;0.28;;;;;;;21.58;100.00;101216.91;5050862;28;20028;-52
2022/07/22 09:21:35;;;;;;;1.40;0.28;;;;;;;21.77;100.00;101221.81;5051311;28;20028;-52
2022/07/22 09:24:01;;;;;;;1.67;1.17;;;;;;;21.96;100.00;101208.03;5042316;28;20052;-53
2022/07/22 09:26:35;;;;;;;1.90;0.10;;;;;;;22.16;100.00;101218.28;5057720;28;20033;-54
2022/07/22 09:29:01;;;;;;;3.20;0.25;;;;;;;22.33;100.00;101220.94;5050725;28;20040;-48
2022/07/22 09:31:32;;;;;;;4.68;0.13;;;;;;;22.29;100.00;101211.72;5056625;28;20028;-51
2022/07/22 09:33:58;;;;;;;0.55;0.15;;;;;;;22.40;100.00;101206.19;5033617;28;20033;-49
2022/07/22 09:36:24;;;;;;;5.78;0.40;;;;;;;22.51;100.00;101212.53;5058222;28;20048;-52
2022/07/22 09:38:50;;;;;;;0.88;0.22;;;;;;;22.40;100.00;101206.19;5057146;28;20052;-49
2022/07/22 09:41:16;;;;;;;2.53;0.13;;;;;;;22.48;100.00;101204.09;5050227;28;20476;-51
2022/07/22 09:43:41;;;;;;;0.80;0.15;;;;;;;22.58;100.00;101206.91;5054957;28;20039;-54
2022/07/22 09:46:08;;;;;;;2.38;0.30;;;;;;;22.74;100.00;101219.53;5063943;28;20504;-50
2022/07/22 09:48:33;;;;;;;3.97;0.17;;;;;;;22.94;100.00;101218.09;5037867;28;22473;-51
2022/07/22 09:50:59;;;;;;;1.23;0.30;;;;;;;23.14;100.00;101225.63;5060980;28;20032;-52
2022/07/22 09:53:27;;;;;;;4.13;0.10;;;;;;;23.29;100.00;101221.16;5056279;28;20033;-55
2022/07/22 09:55:53;;;;;;;0.95;0.20;;;;;;;23.34;100.00;101222.28;5055949;28;20396;-52
2022/07/22 09:58:19;;;;;;;1.95;0.28;;;;;;;23.30;100.00;101220.09;5052711;28;20039;-48
2022/07/22 10:00:45;;;;;;;0.82;0.20;;;;;;;23.26;100.00;101224.41;5050650;28;20340;-47
2022/07/22 10:03:18;;;;;;;0.73;0.32;;;;;;;23.27;100.00;101220.59;5059500;28;20078;-49
2022/07/22 10:05:45;;;;;;;0.50;0.10;;;;;;;23.49;100.00;101216.97;5064676;28;20330;-51
2022/07/22 10:08:10;;;;;;;3.65;0.35;;;;;;;23.62;100.00;101216.56;5067909;28;20032;-53
2022/07/22 10:10:38;;;;;;;4.22;1.17;;;;;;;23.54;100.00;101208.91;5049776;28;20032;-53
2022/07/22 10:13:06;;;;;;;1.35;0.20;;;;;;;23.43;100.00;101223.44;5058505;28;20182;-49
2022/07/22 10:15:33;;;;;;;7.10;0.20;;;;;;;23.28;100.00;101224.97;5050756;28;20087;-50
2022/07/22 10:18:03;;;;;;;2.10;0.43;;;;;;;23.18;100.00;101219.47;5032865;28;20035;-52
2022/07/22 10:20:29;;;;;;;2.25;0.22;;;;;;;23.12;100.00;101217.78;5059713;28;20060;-47
2022/07/22 10:23:05;;;;;;;3.83;0.30;;;;;;;22.88;100.00;101221.84;5056893;28;20066;-58
2022/07/22 10:25:47;;;;;;;1.63;0.38;;;;;;;22.55;100.00;101221.75;5057239;28;20484;-54
2022/07/22 10:28:24;;;;;;;1.48;0.10;;;;;;;22.49;100.00;101214.66;5050518;28;20044;-47
2022/07/22 10:30:50;;;;;;;0.82;0.25;;;;;;;22.40;100.00;101218.88;5055848;28;20039;-45
2022/07/22 10:33:21;;;;;;;5.60;0.40;;;;;;;22.32;100.00;101217.44;5049442;28;20032;-53
2022/07/22 10:35:54;;;;;;;1.45;0.52;;;;;;;22.16;100.00;101210.19;5056219;28;20060;-50
2022/07/22 10:38:21;;;;;;;1.23;0.30;;;;;;;21.94;100.00;101207.44;5052717;28;20040;-49
2022/07/22 10:40:46;;;;;;;1.88;0.25;;;;;;;21.82;100.00;101207.56;5054128;28;20036;-54
2022/07/22 10:43:13;;;;;;;8.63;0.30;;;;;;;21.88;100.00;101198.47;5058221;28;20081;-51
2022/07/22 10:45:46;;;;;;;1.30;0.15;;;;;;;21.83;100.00;101206.50;5054182;28;20025;-52
2022/07/22 10:48:23;;;;;;;1.73;0.30;;;;;;;21.81;100.00;101203.22;5044701;28;20401;-52
2022/07/22 10:50:52;;;;;;;1.33;0.30;;;;;;;21.80;100.00;101204.28;5035288;28;20053;-46
2022/07/22 10:53:37;;;;;;;1.52;0.10;;;;;;;21.81;100.00;101197.00;5059486;28;20036;-49
2022/07/22 10:56:13;;;;;;;1.73;0.50;;;;;;;21.83;100.00;101194.88;5056050;28;21016;-51
2022/07/22 10:58:58;;;;;;;3.40;0.20;;;;;;;21.88;100.00;101194.97;5049607;28;20037;-51
2022/07/22 11:01:30;;;;;;;0.60;0.10;;;;;;;21.97;100.00;101202.38;5051419;28;20033;-44
2022/07/22 11:04:07;;;;;;;4.68;0.25;;;;;;;22.09;100.00;101198.75;5057165;28;20039;-47
2022/07/22 11:06:32;;;;;;;5.97;0.32;;;;;;;22.17;100.00;101188.31;5056556;28;20040;-45
2022/07/22 11:09:00;;;;;;;0.60;0.28;;;;;;;22.18;100.00;101199.94;5057858;28;20032;-54
2022/07/22 11:11:41;;;;;;;1.98;0.30;;;;;;;22.30;100.00;101189.84;5059306;28;20028;-48
2022/07/22 11:14:26;;;;;;;;;;;;;;;22.40;100.00;101179.16;5056589;28;20036;-50